»·PEaware :: N1718G KPHX-KSAN

N1718G :: KPHX-KSAN

FLIGHT INFORMATION

Flight Status: Arrived
Operator: Privately registered:
United States
More flights under this callsign
Pilot: Spencer M. (27733)
Aircraft: Unknown
(LEG2)
More flights by this aircraft type
Origin: KPHX Phoenix Sky Harbor Intl
United States
Destination: KSAN San Diego Intl-Lindbergh
United States
More flights between these airports :: More routes between these airports
Route: +V317 PGY
File this flight plan on PilotEdge
Remarks:
Altitude:
(Current/Filed)
10,000ft
Speed:
(Current/Filed)
250kts
Departed: 26-Jul-20 07:46 PM
Arrived: 26-Jul-20 09:14 PM
Distance/Time
Traveled:
264nm/1:28
Distance/Time
To Go:
Arrived

Flight Plot

Page will automatically refresh every two minutes.


Map Options




Map Legend


Flown Route
Filed Route
Departure Airport
Arrival Airport
Navaid (VOR, NDB)
Fix

Horizontal Profiles

Position Reports

Time Latitude Longitude Heading Altitude Ground
Speed
26-Jul-20 19:20 33.434440 -112.025136 359 1134ft 0kts
26-Jul-20 19:21 33.434440 -112.025136 359 1134ft 0kts
26-Jul-20 19:22 33.434440 -112.025136 359 1134ft 0kts
26-Jul-20 19:23 33.434440 -112.025136 359 1134ft 0kts
26-Jul-20 19:24 33.434440 -112.025136 359 1134ft 0kts
26-Jul-20 19:25 33.434440 -112.025136 359 1134ft 0kts
26-Jul-20 19:26 33.434440 -112.025136 359 1134ft 0kts
26-Jul-20 19:27 33.434440 -112.025136 359 1134ft 0kts
26-Jul-20 19:28 33.434440 -112.025136 359 1134ft 0kts
26-Jul-20 19:29 33.434440 -112.025136 359 1134ft 0kts
26-Jul-20 19:30 33.434440 -112.025136 359 1134ft 0kts
26-Jul-20 19:31 33.434440 -112.025136 359 1134ft 0kts
26-Jul-20 19:32 33.433977 -112.025177 197 1134ft 7kts
26-Jul-20 19:33 33.432708 -112.026744 218 1134ft 5kts
26-Jul-20 19:34 33.431915 -112.026943 181 1134ft 0kts
26-Jul-20 19:35 33.431915 -112.026943 181 1134ft 0kts
26-Jul-20 19:36 33.431915 -112.026943 181 1134ft 0kts
26-Jul-20 19:37 33.431915 -112.026943 181 1134ft 0kts
26-Jul-20 19:38 33.431700 -112.026945 182 1134ft 5kts
26-Jul-20 19:39 33.431115 -112.016897 91 1134ft 17kts
26-Jul-20 19:40 33.432171 -112.015358 54 1134ft 7kts
26-Jul-20 19:41 33.432865 -112.016671 271 1134ft 8kts
26-Jul-20 19:42 33.432883 -112.020989 270 1134ft 14kts
26-Jul-20 19:43 33.432902 -112.025959 270 1134ft 11kts
26-Jul-20 19:44 33.431768 -112.026969 181 1134ft 7kts
26-Jul-20 19:45 33.431020 -112.013903 92 1134ft 46kts
26-Jul-20 19:46 33.432008 -111.975084 76 1691ft 161kts
26-Jul-20 19:47 33.466802 -111.971739 312 2429ft 173kts
26-Jul-20 19:48 33.498263 -112.016076 309 3211ft 174kts
26-Jul-20 19:49 33.527339 -112.062432 282 3983ft 179kts
26-Jul-20 19:50 33.489509 -112.089276 184 4849ft 188kts
26-Jul-20 19:51 33.432799 -112.095449 187 5849ft 217kts
26-Jul-20 19:52 33.371755 -112.103858 187 6838ft 224kts
26-Jul-20 19:53 33.309906 -112.112193 187 7824ft 223kts
26-Jul-20 19:54 33.247746 -112.120545 187 8812ft 227kts
26-Jul-20 19:55 33.185161 -112.128914 187 9798ft 226kts
26-Jul-20 19:56 33.118771 -112.138138 188 10035ft 252kts
26-Jul-20 19:57 33.047949 -112.147923 187 10038ft 258kts
26-Jul-20 19:58 32.976764 -112.157525 187 10039ft 256kts
26-Jul-20 19:59 32.922205 -112.201789 251 10044ft 250kts
26-Jul-20 20:00 32.922727 -112.283297 280 10010ft 248kts
26-Jul-20 20:01 32.931808 -112.364579 278 9996ft 247kts
26-Jul-20 20:02 32.939396 -112.445770 278 9996ft 247kts
26-Jul-20 20:03 32.946721 -112.526902 277 9996ft 246kts
26-Jul-20 20:04 32.954004 -112.608107 278 9996ft 246kts
26-Jul-20 20:05 32.957731 -112.689631 263 9989ft 248kts
26-Jul-20 20:06 32.947084 -112.770884 262 9996ft 248kts
26-Jul-20 20:07 32.936178 -112.851862 262 9996ft 247kts
26-Jul-20 20:08 32.925291 -112.932522 261 9996ft 246kts
26-Jul-20 20:09 32.914372 -113.012638 260 9995ft 245kts
26-Jul-20 20:10 32.903343 -113.092985 260 9995ft 246kts
26-Jul-20 20:11 32.892281 -113.173563 260 9996ft 246kts
26-Jul-20 20:12 32.881180 -113.254074 260 9996ft 247kts
26-Jul-20 20:13 32.869993 -113.334744 260 9996ft 247kts
26-Jul-20 20:14 32.858788 -113.415134 260 9996ft 247kts
26-Jul-20 20:15 32.847488 -113.495795 260 9996ft 247kts
26-Jul-20 20:16 32.836134 -113.576455 260 9998ft 247kts
26-Jul-20 20:17 32.824748 -113.656971 259 10001ft 247kts
26-Jul-20 20:18 32.813324 -113.737409 259 10004ft 247kts
26-Jul-20 20:19 32.801805 -113.817685 258 10006ft 243kts
26-Jul-20 20:20 32.790376 -113.895681 258 10006ft 237kts
26-Jul-20 20:21 32.779677 -113.972736 262 10010ft 236kts
26-Jul-20 20:22 32.778061 -114.050975 267 10007ft 236kts
26-Jul-20 20:24 32.777421 -114.128897 267 10007ft 236kts
26-Jul-20 20:25 32.776446 -114.204563 266 10006ft 216kts
26-Jul-20 20:26 32.775103 -114.273483 266 10007ft 203kts
26-Jul-20 20:27 32.773962 -114.339595 266 10007ft 198kts
26-Jul-20 20:28 32.772990 -114.404602 266 10006ft 196kts
26-Jul-20 20:29 32.772072 -114.469242 266 10005ft 195kts
26-Jul-20 20:30 32.771588 -114.542523 268 10003ft 240kts
26-Jul-20 20:31 32.771125 -114.622880 267 9996ft 245kts
26-Jul-20 20:32 32.769819 -114.704006 266 9990ft 246kts
26-Jul-20 20:33 32.768324 -114.785124 266 9988ft 246kts
26-Jul-20 20:34 32.766747 -114.866645 266 9988ft 246kts
26-Jul-20 20:35 32.765074 -114.946729 266 9988ft 239kts
26-Jul-20 20:36 32.763293 -115.025142 266 9982ft 236kts
26-Jul-20 20:37 32.761528 -115.103111 268 9973ft 238kts
26-Jul-20 20:38 32.759802 -115.183140 269 9963ft 243kts
26-Jul-20 20:38 32.758387 -115.250208 269 9960ft 244kts
26-Jul-20 20:40 32.756240 -115.344144 269 9983ft 243kts
26-Jul-20 20:41 32.754317 -115.424344 269 9988ft 243kts
26-Jul-20 20:41 32.752682 -115.491543 269 9988ft 244kts
26-Jul-20 20:43 32.752828 -115.585577 272 9988ft 244kts
26-Jul-20 20:43 32.754496 -115.652673 272 9988ft 244kts
26-Jul-20 20:44 32.756502 -115.733401 272 9987ft 244kts
26-Jul-20 20:45 32.758437 -115.813741 272 9996ft 243kts
26-Jul-20 20:46 32.760334 -115.894349 272 9996ft 244kts
26-Jul-20 20:47 32.762174 -115.974705 272 9996ft 244kts
26-Jul-20 20:48 32.743252 -116.047920 241 9995ft 225kts
26-Jul-20 20:49 32.715997 -116.106971 240 9904ft 173kts
26-Jul-20 20:50 32.696280 -116.149733 241 9185ft 157kts
26-Jul-20 20:51 32.685828 -116.205341 262 8506ft 186kts
26-Jul-20 20:52 32.678401 -116.265554 263 8098ft 173kts
26-Jul-20 20:53 32.671538 -116.318437 263 8151ft 152kts
26-Jul-20 20:54 32.667347 -116.372199 269 8209ft 183kts
26-Jul-20 20:55 32.665788 -116.436405 264 8241ft 198kts
26-Jul-20 20:56 32.660322 -116.498606 261 8241ft 172kts
26-Jul-20 20:57 32.654603 -116.550256 260 8242ft 146kts
26-Jul-20 20:58 32.649374 -116.599636 263 7898ft 154kts
26-Jul-20 20:59 32.656607 -116.650581 278 7142ft 150kts
26-Jul-20 21:00 32.662613 -116.692998 275 6330ft 122kts
26-Jul-20 21:01 32.669465 -116.740360 278 5387ft 167kts
26-Jul-20 21:02 32.677754 -116.796383 277 4986ft 164kts
26-Jul-20 21:03 32.684739 -116.847864 277 4981ft 154kts
26-Jul-20 21:04 32.684227 -116.898140 242 4701ft 162kts
26-Jul-20 21:05 32.673636 -116.942341 282 3864ft 121kts
26-Jul-20 21:06 32.683468 -116.981956 290 3461ft 130kts
26-Jul-20 21:07 32.692278 -117.017861 288 2706ft 101kts
26-Jul-20 21:08 32.698028 -117.049741 285 2216ft 99kts
26-Jul-20 21:09 32.704253 -117.081185 290 2045ft 95kts
26-Jul-20 21:10 32.714793 -117.110431 296 1604ft 98kts
26-Jul-20 21:11 32.721431 -117.140513 289 1015ft 94kts
26-Jul-20 21:12 32.728753 -117.170280 289 328ft 93kts
26-Jul-20 21:13 32.734218 -117.191199 48 19ft 8kts
26-Jul-20 21:14 32.734996 -117.189655 16 19ft 8kts

Navigation Log

Ident Type
Flight plan parsing failed, navigation log unavailable